sensor_id;sensor_type;location;lat;lon;timestamp;P1;durP1;ratioP1;P2;durP2;ratioP2
2522;SDS011;1272;53.332;9.860;2023-05-10T00:00:26;3.23;;;2.87;;
2522;SDS011;1272;53.332;9.860;2023-05-10T00:02:52;2.93;;;2.77;;
2522;SDS011;1272;53.332;9.860;2023-05-10T00:05:17;2.80;;;2.70;;
2522;SDS011;1272;53.332;9.860;2023-05-10T00:07:43;4.10;;;2.90;;
2522;SDS011;1272;53.332;9.860;2023-05-10T00:10:12;3.40;;;3.20;;
2522;SDS011;1272;53.332;9.860;2023-05-10T00:12:38;3.23;;;3.03;;
2522;SDS011;1272;53.332;9.860;2023-05-10T00:15:03;2.93;;;2.70;;
2522;SDS011;1272;53.332;9.860;2023-05-10T00:17:30;3.10;;;2.97;;
2522;SDS011;1272;53.332;9.860;2023-05-10T00:19:55;3.83;;;2.77;;
2522;SDS011;1272;53.332;9.860;2023-05-10T00:22:21;2.90;;;2.70;;
2522;SDS011;1272;53.332;9.860;2023-05-10T00:24:47;3.10;;;2.80;;
2522;SDS011;1272;53.332;9.860;2023-05-10T00:27:13;3.90;;;3.13;;
2522;SDS011;1272;53.332;9.860;2023-05-10T00:29:38;3.20;;;3.00;;
2522;SDS011;1272;53.332;9.860;2023-05-10T00:32:04;2.80;;;2.67;;
2522;SDS011;1272;53.332;9.860;2023-05-10T00:34:30;3.10;;;2.90;;
2522;SDS011;1272;53.332;9.860;2023-05-10T00:36:56;6.10;;;2.73;;
2522;SDS011;1272;53.332;9.860;2023-05-10T00:39:22;3.00;;;2.87;;
2522;SDS011;1272;53.332;9.860;2023-05-10T00:41:47;2.53;;;2.43;;
2522;SDS011;1272;53.332;9.860;2023-05-10T00:44:13;3.83;;;2.93;;
2522;SDS011;1272;53.332;9.860;2023-05-10T00:46:39;3.17;;;2.97;;
2522;SDS011;1272;53.332;9.860;2023-05-10T00:49:05;3.50;;;3.20;;
2522;SDS011;1272;53.332;9.860;2023-05-10T00:51:31;3.07;;;2.90;;
2522;SDS011;1272;53.332;9.860;2023-05-10T00:53:57;2.60;;;2.50;;
2522;SDS011;1272;53.332;9.860;2023-05-10T00:56:24;3.20;;;3.00;;
2522;SDS011;1272;53.332;9.860;2023-05-10T00:58:50;6.00;;;3.23;;
2522;SDS011;1272;53.332;9.860;2023-05-10T01:01:16;2.73;;;2.53;;
2522;SDS011;1272;53.332;9.860;2023-05-10T01:03:42;3.37;;;3.03;;
2522;SDS011;1272;53.332;9.860;2023-05-10T01:06:08;3.83;;;3.43;;
2522;SDS011;1272;53.332;9.860;2023-05-10T01:08:35;3.03;;;2.87;;
2522;SDS011;1272;53.332;9.860;2023-05-10T01:11:01;3.20;;;2.90;;
2522;SDS011;1272;53.332;9.860;2023-05-10T01:13:34;2.90;;;2.80;;
2522;SDS011;1272;53.332;9.860;2023-05-10T01:16:02;3.30;;;3.10;;
2522;SDS011;1272;53.332;9.860;2023-05-10T01:18:29;3.13;;;2.90;;
2522;SDS011;1272;53.332;9.860;2023-05-10T01:21:04;3.07;;;2.80;;
2522;SDS011;1272;53.332;9.860;2023-05-10T01:26:31;3.40;;;3.10;;
2522;SDS011;1272;53.332;9.860;2023-05-10T01:29:51;4.50;;;3.27;;
2522;SDS011;1272;53.332;9.860;2023-05-10T01:38:15;3.23;;;3.00;;
2522;SDS011;1272;53.332;9.860;2023-05-10T01:41:14;3.30;;;3.10;;
2522;SDS011;1272;53.332;9.860;2023-05-10T01:44:07;3.13;;;2.93;;
2522;SDS011;1272;53.332;9.860;2023-05-10T01:46:35;3.53;;;3.33;;
2522;SDS011;1272;53.332;9.860;2023-05-10T01:49:05;3.07;;;2.87;;
2522;SDS011;1272;53.332;9.860;2023-05-10T01:52:08;3.20;;;2.70;;
2522;SDS011;1272;53.332;9.860;2023-05-10T01:54:31;5.80;;;3.40;;
2522;SDS011;1272;53.332;9.860;2023-05-10T01:57:00;3.47;;;3.27;;
2522;SDS011;1272;53.332;9.860;2023-05-10T01:59:30;3.20;;;3.00;;
2522;SDS011;1272;53.332;9.860;2023-05-10T02:02:05;3.13;;;2.93;;
2522;SDS011;1272;53.332;9.860;2023-05-10T02:04:36;3.43;;;3.20;;
2522;SDS011;1272;53.332;9.860;2023-05-10T02:07:04;3.40;;;2.90;;
2522;SDS011;1272;53.332;9.860;2023-05-10T02:09:32;3.20;;;3.00;;
2522;SDS011;1272;53.332;9.860;2023-05-10T02:11:59;2.87;;;2.67;;
2522;SDS011;1272;53.332;9.860;2023-05-10T02:14:28;3.20;;;3.10;;
2522;SDS011;1272;53.332;9.860;2023-05-10T02:16:59;3.23;;;2.93;;
2522;SDS011;1272;53.332;9.860;2023-05-10T02:19:27;3.13;;;2.93;;
2522;SDS011;1272;53.332;9.860;2023-05-10T02:21:54;4.50;;;3.47;;
2522;SDS011;1272;53.332;9.860;2023-05-10T02:24:20;3.30;;;3.00;;
2522;SDS011;1272;53.332;9.860;2023-05-10T02:26:48;3.33;;;3.10;;
2522;SDS011;1272;53.332;9.860;2023-05-10T02:29:16;3.77;;;3.47;;
2522;SDS011;1272;53.332;9.860;2023-05-10T02:31:43;3.73;;;3.10;;
2522;SDS011;1272;53.332;9.860;2023-05-10T02:34:10;3.70;;;3.50;;
2522;SDS011;1272;53.332;9.860;2023-05-10T02:36:37;3.93;;;3.70;;
2522;SDS011;1272;53.332;9.860;2023-05-10T02:39:04;3.10;;;2.90;;
2522;SDS011;1272;53.332;9.860;2023-05-10T02:41:35;3.77;;;3.47;;
2522;SDS011;1272;53.332;9.860;2023-05-10T02:44:01;3.20;;;3.00;;
2522;SDS011;1272;53.332;9.860;2023-05-10T02:46:28;3.00;;;2.80;;
2522;SDS011;1272;53.332;9.860;2023-05-10T02:48:55;4.03;;;3.73;;
2522;SDS011;1272;53.332;9.860;2023-05-10T02:51:20;3.07;;;2.87;;
2522;SDS011;1272;53.332;9.860;2023-05-10T02:53:56;3.43;;;3.00;;
2522;SDS011;1272;53.332;9.860;2023-05-10T02:56:31;4.07;;;3.77;;
2522;SDS011;1272;53.332;9.860;2023-05-10T02:58:59;2.80;;;2.70;;
2522;SDS011;1272;53.332;9.860;2023-05-10T03:01:25;3.40;;;3.20;;
2522;SDS011;1272;53.332;9.860;2023-05-10T03:03:50;3.43;;;3.23;;
2522;SDS011;1272;53.332;9.860;2023-05-10T03:06:16;2.93;;;2.73;;
2522;SDS011;1272;53.332;9.860;2023-05-10T03:08:42;3.50;;;3.20;;
2522;SDS011;1272;53.332;9.860;2023-05-10T03:13:53;3.77;;;3.47;;
2522;SDS011;1272;53.332;9.860;2023-05-10T03:16:35;3.83;;;3.53;;
2522;SDS011;1272;53.332;9.860;2023-05-10T03:21:54;4.07;;;3.30;;
2522;SDS011;1272;53.332;9.860;2023-05-10T03:24:24;3.07;;;2.90;;
2522;SDS011;1272;53.332;9.860;2023-05-10T03:26:53;3.87;;;3.57;;
2522;SDS011;1272;53.332;9.860;2023-05-10T03:29:22;3.93;;;3.73;;
2522;SDS011;1272;53.332;9.860;2023-05-10T03:31:50;4.03;;;3.80;;
2522;SDS011;1272;53.332;9.860;2023-05-10T03:34:16;3.50;;;3.20;;
2522;SDS011;1272;53.332;9.860;2023-05-10T03:36:47;4.07;;;3.77;;
2522;SDS011;1272;53.332;9.860;2023-05-10T03:39:13;3.00;;;2.83;;
2522;SDS011;1272;53.332;9.860;2023-05-10T03:41:39;4.07;;;3.87;;
2522;SDS011;1272;53.332;9.860;2023-05-10T03:44:07;3.13;;;2.93;;
2522;SDS011;1272;53.332;9.860;2023-05-10T03:46:33;3.20;;;3.00;;
2522;SDS011;1272;53.332;9.860;2023-05-10T03:48:58;4.00;;;3.70;;
2522;SDS011;1272;53.332;9.860;2023-05-10T03:51:24;4.23;;;3.83;;
2522;SDS011;1272;53.332;9.860;2023-05-10T03:53:53;3.90;;;3.60;;
2522;SDS011;1272;53.332;9.860;2023-05-10T03:56:19;3.90;;;3.60;;
2522;SDS011;1272;53.332;9.860;2023-05-10T03:58:45;3.60;;;3.40;;
2522;SDS011;1272;53.332;9.860;2023-05-10T04:01:11;3.47;;;3.27;;
2522;SDS011;1272;53.332;9.860;2023-05-10T04:03:37;3.27;;;3.07;;
2522;SDS011;1272;53.332;9.860;2023-05-10T04:06:03;3.90;;;3.60;;
2522;SDS011;1272;53.332;9.860;2023-05-10T04:08:29;4.10;;;3.80;;
2522;SDS011;1272;53.332;9.860;2023-05-10T04:11:04;3.20;;;3.00;;
2522;SDS011;1272;53.332;9.860;2023-05-10T04:13:33;3.73;;;3.40;;
2522;SDS011;1272;53.332;9.860;2023-05-10T04:15:59;3.80;;;3.60;;
2522;SDS011;1272;53.332;9.860;2023-05-10T04:18:25;3.90;;;3.70;;
2522;SDS011;1272;53.332;9.860;2023-05-10T04:20:51;4.47;;;4.17;;
2522;SDS011;1272;53.332;9.860;2023-05-10T04:23:17;3.90;;;3.60;;
2522;SDS011;1272;53.332;9.860;2023-05-10T04:25:42;3.97;;;3.77;;
2522;SDS011;1272;53.332;9.860;2023-05-10T04:28:08;4.10;;;3.80;;
2522;SDS011;1272;53.332;9.860;2023-05-10T04:30:34;3.80;;;3.60;;
2522;SDS011;1272;53.332;9.860;2023-05-10T04:33:00;4.43;;;4.10;;
2522;SDS011;1272;53.332;9.860;2023-05-10T04:35:29;7.40;;;3.37;;
2522;SDS011;1272;53.332;9.860;2023-05-10T04:37:54;3.87;;;3.53;;
2522;SDS011;1272;53.332;9.860;2023-05-10T04:40:21;4.53;;;4.23;;
2522;SDS011;1272;53.332;9.860;2023-05-10T04:42:46;3.93;;;3.73;;
2522;SDS011;1272;53.332;9.860;2023-05-10T04:45:12;4.33;;;3.93;;
2522;SDS011;1272;53.332;9.860;2023-05-10T04:47:39;3.60;;;3.40;;
2522;SDS011;1272;53.332;9.860;2023-05-10T04:50:05;4.87;;;4.50;;
2522;SDS011;1272;53.332;9.860;2023-05-10T04:52:32;4.10;;;3.70;;
2522;SDS011;1272;53.332;9.860;2023-05-10T04:54:58;4.20;;;3.80;;
2522;SDS011;1272;53.332;9.860;2023-05-10T04:57:23;3.93;;;3.67;;
2522;SDS011;1272;53.332;9.860;2023-05-10T04:59:50;3.93;;;3.63;;
2522;SDS011;1272;53.332;9.860;2023-05-10T05:02:16;4.30;;;3.90;;
2522;SDS011;1272;53.332;9.860;2023-05-10T05:04:41;3.80;;;3.40;;
2522;SDS011;1272;53.332;9.860;2023-05-10T05:07:07;3.83;;;3.53;;
2522;SDS011;1272;53.332;9.860;2023-05-10T05:09:32;4.10;;;3.80;;
2522;SDS011;1272;53.332;9.860;2023-05-10T05:11:58;3.67;;;3.47;;
2522;SDS011;1272;53.332;9.860;2023-05-10T05:14:24;3.77;;;3.47;;
2522;SDS011;1272;53.332;9.860;2023-05-10T05:16:52;4.40;;;4.00;;
2522;SDS011;1272;53.332;9.860;2023-05-10T05:19:18;4.30;;;3.90;;
2522;SDS011;1272;53.332;9.860;2023-05-10T05:21:44;3.97;;;3.70;;
2522;SDS011;1272;53.332;9.860;2023-05-10T05:24:10;5.00;;;4.30;;
2522;SDS011;1272;53.332;9.860;2023-05-10T05:26:37;3.90;;;3.70;;
2522;SDS011;1272;53.332;9.860;2023-05-10T05:29:03;3.37;;;3.23;;
2522;SDS011;1272;53.332;9.860;2023-05-10T05:31:29;5.53;;;4.00;;
2522;SDS011;1272;53.332;9.860;2023-05-10T05:33:55;4.10;;;3.80;;
2522;SDS011;1272;53.332;9.860;2023-05-10T05:36:21;3.77;;;3.47;;
2522;SDS011;1272;53.332;9.860;2023-05-10T05:38:47;4.30;;;4.00;;
2522;SDS011;1272;53.332;9.860;2023-05-10T05:41:12;6.23;;;3.70;;
2522;SDS011;1272;53.332;9.860;2023-05-10T05:43:38;4.20;;;3.90;;
2522;SDS011;1272;53.332;9.860;2023-05-10T05:46:04;5.30;;;3.97;;
2522;SDS011;1272;53.332;9.860;2023-05-10T05:48:30;4.40;;;4.10;;
2522;SDS011;1272;53.332;9.860;2023-05-10T05:50:56;4.00;;;3.60;;
2522;SDS011;1272;53.332;9.860;2023-05-10T05:53:22;3.77;;;3.47;;
2522;SDS011;1272;53.332;9.860;2023-05-10T05:55:55;4.07;;;3.77;;
2522;SDS011;1272;53.332;9.860;2023-05-10T05:58:22;3.70;;;3.50;;
2522;SDS011;1272;53.332;9.860;2023-05-10T06:00:48;7.33;;;3.90;;
2522;SDS011;1272;53.332;9.860;2023-05-10T06:03:14;3.93;;;3.63;;
2522;SDS011;1272;53.332;9.860;2023-05-10T06:05:40;4.20;;;3.90;;
2522;SDS011;1272;53.332;9.860;2023-05-10T06:08:06;4.47;;;3.77;;
2522;SDS011;1272;53.332;9.860;2023-05-10T06:10:32;4.20;;;3.87;;
2522;SDS011;1272;53.332;9.860;2023-05-10T06:12:57;4.40;;;4.07;;
2522;SDS011;1272;53.332;9.860;2023-05-10T06:15:23;4.00;;;3.70;;
2522;SDS011;1272;53.332;9.860;2023-05-10T06:17:49;3.97;;;3.30;;
2522;SDS011;1272;53.332;9.860;2023-05-10T06:20:15;4.30;;;4.00;;
2522;SDS011;1272;53.332;9.860;2023-05-10T06:22:41;4.50;;;4.10;;
2522;SDS011;1272;53.332;9.860;2023-05-10T06:25:07;8.10;;;3.77;;
2522;SDS011;1272;53.332;9.860;2023-05-10T06:27:33;4.23;;;3.90;;
2522;SDS011;1272;53.332;9.860;2023-05-10T06:29:59;3.33;;;3.13;;
2522;SDS011;1272;53.332;9.860;2023-05-10T06:32:25;4.47;;;4.07;;
2522;SDS011;1272;53.332;9.860;2023-05-10T06:34:50;6.00;;;5.50;;
2522;SDS011;1272;53.332;9.860;2023-05-10T06:37:17;3.37;;;3.17;;
2522;SDS011;1272;53.332;9.860;2023-05-10T06:39:42;3.90;;;3.50;;
2522;SDS011;1272;53.332;9.860;2023-05-10T06:42:08;3.80;;;3.60;;
2522;SDS011;1272;53.332;9.860;2023-05-10T06:44:34;3.43;;;3.23;;
2522;SDS011;1272;53.332;9.860;2023-05-10T06:46:59;3.67;;;3.37;;
2522;SDS011;1272;53.332;9.860;2023-05-10T06:49:25;3.23;;;3.03;;
2522;SDS011;1272;53.332;9.860;2023-05-10T06:51:51;4.20;;;3.90;;
2522;SDS011;1272;53.332;9.860;2023-05-10T06:54:16;4.60;;;4.30;;
2522;SDS011;1272;53.332;9.860;2023-05-10T06:56:42;4.03;;;3.67;;
2522;SDS011;1272;53.332;9.860;2023-05-10T06:59:08;4.40;;;4.10;;
2522;SDS011;1272;53.332;9.860;2023-05-10T07:01:34;3.60;;;3.40;;
2522;SDS011;1272;53.332;9.860;2023-05-10T07:04:00;3.73;;;3.53;;
2522;SDS011;1272;53.332;9.860;2023-05-10T07:06:25;5.23;;;3.80;;
2522;SDS011;1272;53.332;9.860;2023-05-10T07:08:52;3.30;;;3.10;;
2522;SDS011;1272;53.332;9.860;2023-05-10T07:11:18;4.90;;;4.20;;
2522;SDS011;1272;53.332;9.860;2023-05-10T07:13:43;3.77;;;3.37;;
2522;SDS011;1272;53.332;9.860;2023-05-10T07:16:11;4.47;;;4.07;;
2522;SDS011;1272;53.332;9.860;2023-05-10T07:18:37;3.77;;;3.43;;
2522;SDS011;1272;53.332;9.860;2023-05-10T07:21:02;3.90;;;3.63;;
2522;SDS011;1272;53.332;9.860;2023-05-10T07:23:28;3.70;;;3.30;;
2522;SDS011;1272;53.332;9.860;2023-05-10T07:25:55;3.70;;;3.40;;
2522;SDS011;1272;53.332;9.860;2023-05-10T07:28:22;3.90;;;3.60;;
2522;SDS011;1272;53.332;9.860;2023-05-10T07:30:49;3.90;;;3.60;;
2522;SDS011;1272;53.332;9.860;2023-05-10T07:33:15;4.13;;;3.90;;
2522;SDS011;1272;53.332;9.860;2023-05-10T07:35:41;3.70;;;3.40;;
2522;SDS011;1272;53.332;9.860;2023-05-10T07:38:07;3.50;;;3.30;;
2522;SDS011;1272;53.332;9.860;2023-05-10T07:40:33;3.60;;;3.40;;
2522;SDS011;1272;53.332;9.860;2023-05-10T07:42:59;3.80;;;3.50;;
2522;SDS011;1272;53.332;9.860;2023-05-10T07:45:26;4.40;;;4.07;;
2522;SDS011;1272;53.332;9.860;2023-05-10T07:47:52;4.70;;;4.20;;
2522;SDS011;1272;53.332;9.860;2023-05-10T07:50:19;5.80;;;3.80;;
2522;SDS011;1272;53.332;9.860;2023-05-10T07:52:46;3.60;;;3.30;;
2522;SDS011;1272;53.332;9.860;2023-05-10T07:55:12;3.27;;;3.07;;
2522;SDS011;1272;53.332;9.860;2023-05-10T07:57:37;3.83;;;3.63;;
2522;SDS011;1272;53.332;9.860;2023-05-10T08:00:04;4.47;;;4.13;;
2522;SDS011;1272;53.332;9.860;2023-05-10T08:02:30;4.03;;;3.67;;
2522;SDS011;1272;53.332;9.860;2023-05-10T08:04:56;3.83;;;3.63;;
2522;SDS011;1272;53.332;9.860;2023-05-10T08:07:22;4.70;;;3.93;;
2522;SDS011;1272;53.332;9.860;2023-05-10T08:09:49;3.67;;;3.47;;
2522;SDS011;1272;53.332;9.860;2023-05-10T08:12:15;3.60;;;3.40;;
2522;SDS011;1272;53.332;9.860;2023-05-10T08:14:41;5.50;;;5.07;;
2522;SDS011;1272;53.332;9.860;2023-05-10T08:17:07;3.77;;;3.53;;
2522;SDS011;1272;53.332;9.860;2023-05-10T08:19:33;4.57;;;4.20;;
2522;SDS011;1272;53.332;9.860;2023-05-10T08:21:58;4.33;;;3.93;;
2522;SDS011;1272;53.332;9.860;2023-05-10T08:24:24;3.80;;;3.50;;
2522;SDS011;1272;53.332;9.860;2023-05-10T08:26:50;4.47;;;4.10;;
2522;SDS011;1272;53.332;9.860;2023-05-10T08:29:16;3.73;;;3.43;;
2522;SDS011;1272;53.332;9.860;2023-05-10T08:31:43;4.43;;;4.13;;
2522;SDS011;1272;53.332;9.860;2023-05-10T08:34:08;6.20;;;3.80;;
2522;SDS011;1272;53.332;9.860;2023-05-10T08:36:34;4.37;;;3.93;;
2522;SDS011;1272;53.332;9.860;2023-05-10T08:39:01;4.20;;;3.90;;
2522;SDS011;1272;53.332;9.860;2023-05-10T08:41:27;3.90;;;3.60;;
2522;SDS011;1272;53.332;9.860;2023-05-10T08:43:53;4.97;;;4.67;;
2522;SDS011;1272;53.332;9.860;2023-05-10T08:46:19;4.30;;;4.00;;
2522;SDS011;1272;53.332;9.860;2023-05-10T08:48:49;4.50;;;4.20;;
2522;SDS011;1272;53.332;9.860;2023-05-10T08:51:22;3.67;;;3.47;;
2522;SDS011;1272;53.332;9.860;2023-05-10T08:53:51;4.90;;;4.50;;
2522;SDS011;1272;53.332;9.860;2023-05-10T08:56:18;4.23;;;3.90;;
2522;SDS011;1272;53.332;9.860;2023-05-10T08:58:45;4.90;;;4.50;;
2522;SDS011;1272;53.332;9.860;2023-05-10T09:01:11;4.37;;;4.07;;
2522;SDS011;1272;53.332;9.860;2023-05-10T09:03:38;4.47;;;4.17;;
2522;SDS011;1272;53.332;9.860;2023-05-10T09:06:04;5.17;;;4.77;;
2522;SDS011;1272;53.332;9.860;2023-05-10T09:08:30;5.70;;;4.80;;
2522;SDS011;1272;53.332;9.860;2023-05-10T09:10:56;4.87;;;4.50;;
2522;SDS011;1272;53.332;9.860;2023-05-10T09:13:22;5.87;;;5.37;;
2522;SDS011;1272;53.332;9.860;2023-05-10T09:15:51;5.30;;;4.83;;
2522;SDS011;1272;53.332;9.860;2023-05-10T09:18:17;5.90;;;5.40;;
2522;SDS011;1272;53.332;9.860;2023-05-10T09:20:44;5.30;;;4.70;;
2522;SDS011;1272;53.332;9.860;2023-05-10T09:23:10;4.70;;;4.40;;
2522;SDS011;1272;53.332;9.860;2023-05-10T09:25:36;5.73;;;5.23;;
2522;SDS011;1272;53.332;9.860;2023-05-10T09:28:05;4.70;;;4.30;;
2522;SDS011;1272;53.332;9.860;2023-05-10T09:30:34;4.67;;;4.37;;
2522;SDS011;1272;53.332;9.860;2023-05-10T09:33:00;5.70;;;5.20;;
2522;SDS011;1272;53.332;9.860;2023-05-10T09:35:27;6.30;;;5.80;;
2522;SDS011;1272;53.332;9.860;2023-05-10T09:37:56;5.70;;;5.30;;
2522;SDS011;1272;53.332;9.860;2023-05-10T09:40:24;6.10;;;5.57;;
2522;SDS011;1272;53.332;9.860;2023-05-10T09:45:28;6.83;;;6.17;;
2522;SDS011;1272;53.332;9.860;2023-05-10T09:47:59;5.90;;;5.40;;
2522;SDS011;1272;53.332;9.860;2023-05-10T09:50:26;6.13;;;5.63;;
2522;SDS011;1272;53.332;9.860;2023-05-10T09:52:54;5.93;;;5.43;;
2522;SDS011;1272;53.332;9.860;2023-05-10T09:55:45;6.00;;;5.43;;
2522;SDS011;1272;53.332;9.860;2023-05-10T09:58:11;6.20;;;5.70;;
2522;SDS011;1272;53.332;9.860;2023-05-10T10:00:39;6.10;;;5.50;;
2522;SDS011;1272;53.332;9.860;2023-05-10T10:03:07;6.93;;;6.33;;
2522;SDS011;1272;53.332;9.860;2023-05-10T10:05:44;6.60;;;6.10;;
2522;SDS011;1272;53.332;9.860;2023-05-10T10:08:11;6.70;;;6.00;;
2522;SDS011;1272;53.332;9.860;2023-05-10T10:10:38;5.60;;;5.20;;
2522;SDS011;1272;53.332;9.860;2023-05-10T10:13:09;8.40;;;7.60;;
2522;SDS011;1272;53.332;9.860;2023-05-10T10:15:35;7.03;;;6.43;;
2522;SDS011;1272;53.332;9.860;2023-05-10T10:18:00;6.60;;;6.00;;
2522;SDS011;1272;53.332;9.860;2023-05-10T10:20:28;7.03;;;6.30;;
2522;SDS011;1272;53.332;9.860;2023-05-10T10:22:54;6.50;;;6.00;;
2522;SDS011;1272;53.332;9.860;2023-05-10T10:25:20;6.40;;;5.90;;
2522;SDS011;1272;53.332;9.860;2023-05-10T10:35:22;9.27;;;7.80;;
2522;SDS011;1272;53.332;9.860;2023-05-10T10:37:49;7.50;;;6.80;;
2522;SDS011;1272;53.332;9.860;2023-05-10T10:43:23;8.40;;;7.20;;
2522;SDS011;1272;53.332;9.860;2023-05-10T10:48:38;9.03;;;8.20;;
2522;SDS011;1272;53.332;9.860;2023-05-10T10:51:04;7.00;;;6.40;;
2522;SDS011;1272;53.332;9.860;2023-05-10T10:53:30;7.57;;;6.87;;
2522;SDS011;1272;53.332;9.860;2023-05-10T10:56:09;8.30;;;7.50;;
2522;SDS011;1272;53.332;9.860;2023-05-10T10:58:37;7.60;;;6.90;;
2522;SDS011;1272;53.332;9.860;2023-05-10T11:01:13;8.00;;;7.30;;
2522;SDS011;1272;53.332;9.860;2023-05-10T11:03:41;7.53;;;6.83;;
2522;SDS011;1272;53.332;9.860;2023-05-10T11:06:32;7.40;;;6.27;;
2522;SDS011;1272;53.332;9.860;2023-05-10T11:08:59;8.20;;;7.40;;
2522;SDS011;1272;53.332;9.860;2023-05-10T11:11:35;8.30;;;6.63;;
2522;SDS011;1272;53.332;9.860;2023-05-10T11:14:05;8.13;;;7.40;;
2522;SDS011;1272;53.332;9.860;2023-05-10T11:16:44;10.23;;;9.23;;
2522;SDS011;1272;53.332;9.860;2023-05-10T11:19:10;9.10;;;6.87;;
2522;SDS011;1272;53.332;9.860;2023-05-10T11:24:29;6.93;;;6.43;;
2522;SDS011;1272;53.332;9.860;2023-05-10T11:26:55;7.90;;;6.60;;
2522;SDS011;1272;53.332;9.860;2023-05-10T11:29:22;7.73;;;7.13;;
2522;SDS011;1272;53.332;9.860;2023-05-10T11:31:48;7.80;;;7.10;;
2522;SDS011;1272;53.332;9.860;2023-05-10T11:36:55;7.70;;;6.53;;
2522;SDS011;1272;53.332;9.860;2023-05-10T11:39:25;7.57;;;6.97;;
2522;SDS011;1272;53.332;9.860;2023-05-10T11:41:56;8.83;;;8.03;;
2522;SDS011;1272;53.332;9.860;2023-05-10T11:44:22;7.90;;;7.20;;
2522;SDS011;1272;53.332;9.860;2023-05-10T11:46:48;8.30;;;7.60;;
2522;SDS011;1272;53.332;9.860;2023-05-10T11:49:14;6.87;;;6.37;;
2522;SDS011;1272;53.332;9.860;2023-05-10T11:51:40;8.40;;;7.80;;
2522;SDS011;1272;53.332;9.860;2023-05-10T11:54:08;7.10;;;6.07;;
2522;SDS011;1272;53.332;9.860;2023-05-10T11:56:36;8.07;;;6.77;;
2522;SDS011;1272;53.332;9.860;2023-05-10T11:59:03;6.87;;;6.37;;
2522;SDS011;1272;53.332;9.860;2023-05-10T12:01:29;6.60;;;6.00;;
2522;SDS011;1272;53.332;9.860;2023-05-10T12:03:56;7.07;;;6.47;;
2522;SDS011;1272;53.332;9.860;2023-05-10T12:06:26;6.53;;;5.93;;
2522;SDS011;1272;53.332;9.860;2023-05-10T12:08:53;6.90;;;6.30;;
2522;SDS011;1272;53.332;9.860;2023-05-10T12:11:20;8.23;;;7.43;;
2522;SDS011;1272;53.332;9.860;2023-05-10T12:13:49;7.20;;;6.57;;
2522;SDS011;1272;53.332;9.860;2023-05-10T12:16:16;8.13;;;7.50;;
2522;SDS011;1272;53.332;9.860;2023-05-10T12:18:43;7.53;;;6.93;;
2522;SDS011;1272;53.332;9.860;2023-05-10T12:21:11;7.57;;;6.77;;
2522;SDS011;1272;53.332;9.860;2023-05-10T12:23:37;6.87;;;6.37;;
2522;SDS011;1272;53.332;9.860;2023-05-10T12:26:04;7.87;;;7.17;;
2522;SDS011;1272;53.332;9.860;2023-05-10T12:28:31;6.80;;;6.20;;
2522;SDS011;1272;53.332;9.860;2023-05-10T12:30:57;8.33;;;7.53;;
2522;SDS011;1272;53.332;9.860;2023-05-10T12:33:24;6.97;;;6.40;;
2522;SDS011;1272;53.332;9.860;2023-05-10T12:35:51;7.80;;;7.10;;
2522;SDS011;1272;53.332;9.860;2023-05-10T12:38:34;7.20;;;6.60;;
2522;SDS011;1272;53.332;9.860;2023-05-10T12:41:05;7.60;;;6.50;;
2522;SDS011;1272;53.332;9.860;2023-05-10T12:43:32;7.53;;;6.80;;
2522;SDS011;1272;53.332;9.860;2023-05-10T12:46:09;7.53;;;6.93;;
2522;SDS011;1272;53.332;9.860;2023-05-10T12:48:36;7.10;;;6.60;;
2522;SDS011;1272;53.332;9.860;2023-05-10T12:51:02;6.93;;;6.43;;
2522;SDS011;1272;53.332;9.860;2023-05-10T12:53:29;7.63;;;6.93;;
2522;SDS011;1272;53.332;9.860;2023-05-10T12:55:55;8.30;;;7.60;;
2522;SDS011;1272;53.332;9.860;2023-05-10T12:58:21;5.60;;;5.10;;
2522;SDS011;1272;53.332;9.860;2023-05-10T13:00:48;6.53;;;6.03;;
2522;SDS011;1272;53.332;9.860;2023-05-10T13:03:13;6.93;;;6.43;;
2522;SDS011;1272;53.332;9.860;2023-05-10T13:05:40;5.80;;;5.30;;
2522;SDS011;1272;53.332;9.860;2023-05-10T13:08:06;8.93;;;6.60;;
2522;SDS011;1272;53.332;9.860;2023-05-10T13:10:32;6.50;;;5.90;;
2522;SDS011;1272;53.332;9.860;2023-05-10T13:12:58;5.67;;;5.20;;
2522;SDS011;1272;53.332;9.860;2023-05-10T13:15:24;6.10;;;5.60;;
2522;SDS011;1272;53.332;9.860;2023-05-10T13:17:50;6.73;;;6.23;;
2522;SDS011;1272;53.332;9.860;2023-05-10T13:20:16;5.20;;;4.37;;
2522;SDS011;1272;53.332;9.860;2023-05-10T13:22:43;7.83;;;5.00;;
2522;SDS011;1272;53.332;9.860;2023-05-10T13:25:10;5.83;;;5.43;;
2522;SDS011;1272;53.332;9.860;2023-05-10T13:27:36;5.10;;;4.53;;
2522;SDS011;1272;53.332;9.860;2023-05-10T13:30:03;5.47;;;5.17;;
2522;SDS011;1272;53.332;9.860;2023-05-10T13:32:29;5.13;;;4.73;;
2522;SDS011;1272;53.332;9.860;2023-05-10T13:34:55;5.20;;;4.80;;
2522;SDS011;1272;53.332;9.860;2023-05-10T13:37:21;6.47;;;5.87;;
2522;SDS011;1272;53.332;9.860;2023-05-10T13:39:47;7.23;;;6.73;;
2522;SDS011;1272;53.332;9.860;2023-05-10T13:42:13;5.07;;;4.77;;
2522;SDS011;1272;53.332;9.860;2023-05-10T13:44:38;5.90;;;5.50;;
2522;SDS011;1272;53.332;9.860;2023-05-10T13:47:05;5.70;;;5.30;;
2522;SDS011;1272;53.332;9.860;2023-05-10T13:49:31;5.30;;;4.83;;
2522;SDS011;1272;53.332;9.860;2023-05-10T13:51:56;5.50;;;5.10;;
2522;SDS011;1272;53.332;9.860;2023-05-10T13:54:23;4.30;;;4.00;;
2522;SDS011;1272;53.332;9.860;2023-05-10T13:56:49;5.07;;;4.37;;
2522;SDS011;1272;53.332;9.860;2023-05-10T13:59:14;6.00;;;5.60;;
2522;SDS011;1272;53.332;9.860;2023-05-10T14:01:41;4.87;;;4.57;;
2522;SDS011;1272;53.332;9.860;2023-05-10T14:04:08;3.60;;;3.40;;
2522;SDS011;1272;53.332;9.860;2023-05-10T14:06:35;4.73;;;4.33;;
2522;SDS011;1272;53.332;9.860;2023-05-10T14:09:01;3.47;;;3.27;;
2522;SDS011;1272;53.332;9.860;2023-05-10T14:11:29;4.00;;;3.80;;
2522;SDS011;1272;53.332;9.860;2023-05-10T14:13:55;3.50;;;3.30;;
2522;SDS011;1272;53.332;9.860;2023-05-10T14:16:21;3.57;;;3.37;;
2522;SDS011;1272;53.332;9.860;2023-05-10T14:18:47;3.27;;;3.10;;
2522;SDS011;1272;53.332;9.860;2023-05-10T14:21:12;4.10;;;3.90;;
2522;SDS011;1272;53.332;9.860;2023-05-10T14:23:38;3.50;;;3.30;;
2522;SDS011;1272;53.332;9.860;2023-05-10T14:26:04;3.33;;;3.13;;
2522;SDS011;1272;53.332;9.860;2023-05-10T14:28:30;3.50;;;3.20;;
2522;SDS011;1272;53.332;9.860;2023-05-10T14:30:55;4.10;;;3.90;;
2522;SDS011;1272;53.332;9.860;2023-05-10T14:33:21;3.73;;;3.53;;
2522;SDS011;1272;53.332;9.860;2023-05-10T14:35:47;3.40;;;3.20;;
2522;SDS011;1272;53.332;9.860;2023-05-10T14:38:13;2.60;;;2.50;;
2522;SDS011;1272;53.332;9.860;2023-05-10T14:40:39;2.80;;;2.70;;
2522;SDS011;1272;53.332;9.860;2023-05-10T14:43:05;3.20;;;3.00;;
2522;SDS011;1272;53.332;9.860;2023-05-10T14:45:31;3.40;;;3.13;;
2522;SDS011;1272;53.332;9.860;2023-05-10T14:47:57;2.70;;;2.60;;
2522;SDS011;1272;53.332;9.860;2023-05-10T14:50:23;2.80;;;2.60;;
2522;SDS011;1272;53.332;9.860;2023-05-10T14:52:49;3.10;;;2.90;;
2522;SDS011;1272;53.332;9.860;2023-05-10T14:55:15;3.13;;;3.00;;
2522;SDS011;1272;53.332;9.860;2023-05-10T14:57:41;3.43;;;3.23;;
2522;SDS011;1272;53.332;9.860;2023-05-10T15:00:07;2.97;;;2.83;;
2522;SDS011;1272;53.332;9.860;2023-05-10T15:02:34;3.13;;;2.90;;
2522;SDS011;1272;53.332;9.860;2023-05-10T15:04:59;3.30;;;3.10;;
2522;SDS011;1272;53.332;9.860;2023-05-10T15:07:25;4.20;;;4.00;;
2522;SDS011;1272;53.332;9.860;2023-05-10T15:09:51;3.93;;;3.67;;
2522;SDS011;1272;53.332;9.860;2023-05-10T15:12:17;3.20;;;3.00;;
2522;SDS011;1272;53.332;9.860;2023-05-10T15:14:43;3.40;;;3.20;;
2522;SDS011;1272;53.332;9.860;2023-05-10T15:17:09;3.80;;;3.60;;
2522;SDS011;1272;53.332;9.860;2023-05-10T15:19:35;3.17;;;2.97;;
2522;SDS011;1272;53.332;9.860;2023-05-10T15:22:01;3.23;;;3.03;;
2522;SDS011;1272;53.332;9.860;2023-05-10T15:24:27;4.03;;;3.83;;
2522;SDS011;1272;53.332;9.860;2023-05-10T15:26:53;4.57;;;4.00;;
2522;SDS011;1272;53.332;9.860;2023-05-10T15:29:19;3.60;;;3.50;;
2522;SDS011;1272;53.332;9.860;2023-05-10T15:31:49;4.20;;;3.90;;
2522;SDS011;1272;53.332;9.860;2023-05-10T15:34:16;4.67;;;4.37;;
2522;SDS011;1272;53.332;9.860;2023-05-10T15:36:43;4.13;;;3.87;;
2522;SDS011;1272;53.332;9.860;2023-05-10T15:39:10;3.93;;;3.63;;
2522;SDS011;1272;53.332;9.860;2023-05-10T15:41:37;4.77;;;4.40;;
2522;SDS011;1272;53.332;9.860;2023-05-10T15:44:02;3.90;;;3.70;;
2522;SDS011;1272;53.332;9.860;2023-05-10T15:46:28;4.10;;;3.90;;
2522;SDS011;1272;53.332;9.860;2023-05-10T15:48:57;5.33;;;4.83;;
2522;SDS011;1272;53.332;9.860;2023-05-10T15:51:23;3.87;;;3.63;;